createdAt,value
2023-03-03T00:01:37.384Z,32.47
2023-03-03T00:04:22.531Z,33.20
2023-03-03T00:07:07.954Z,33.83
2023-03-03T00:09:53.563Z,34.33
2023-03-03T00:12:49.447Z,34.80
2023-03-03T00:15:36.186Z,34.40
2023-03-03T00:18:33.596Z,34.57
2023-03-03T00:21:28.382Z,34.87
2023-03-03T00:24:13.960Z,35.83
2023-03-03T00:27:09.243Z,33.70
2023-03-03T00:29:57.186Z,34.50
2023-03-03T00:32:46.285Z,36.87
2023-03-03T00:35:33.398Z,37.13
2023-03-03T00:38:18.821Z,37.33
2023-03-03T00:41:16.645Z,36.60
2023-03-03T00:44:28.475Z,33.73
2023-03-03T00:47:31.413Z,34.67
2023-03-03T00:50:29.780Z,32.67
2023-03-03T00:53:17.376Z,34.73
2023-03-03T00:56:03.063Z,36.43
2023-03-03T00:58:48.429Z,37.17
2023-03-03T01:01:36.633Z,35.40
2023-03-03T01:04:21.759Z,35.30
2023-03-03T01:07:07.057Z,34.13
2023-03-03T01:09:52.695Z,35.47
2023-03-03T01:12:39.845Z,33.37
2023-03-03T01:15:25.363Z,34.23
2023-03-03T01:18:12.096Z,35.97
2023-03-03T01:20:57.834Z,35.70
2023-03-03T01:23:43.027Z,36.03
2023-03-03T01:26:28.659Z,33.83
2023-03-03T01:29:13.790Z,37.00
2023-03-03T01:31:59.512Z,36.00
2023-03-03T01:34:44.986Z,34.80
2023-03-03T01:37:30.386Z,33.93
2023-03-03T01:40:25.094Z,35.77
2023-03-03T01:43:15.126Z,36.07
2023-03-03T01:46:00.735Z,31.17
2023-03-03T01:48:46.905Z,31.03
2023-03-03T01:52:02.705Z,31.70
2023-03-03T01:54:53.717Z,34.37
2023-03-03T01:57:44.878Z,33.13
2023-03-03T02:00:31.690Z,32.47
2023-03-03T02:03:19.931Z,32.67
2023-03-03T02:06:10.004Z,30.07
2023-03-03T02:09:02.230Z,29.63
2023-03-03T02:11:51.125Z,31.33
2023-03-03T02:14:37.220Z,32.63
2023-03-03T02:17:22.889Z,31.63
2023-03-03T02:20:45.968Z,33.07
2023-03-03T02:23:45.431Z,32.50
2023-03-03T02:26:34.334Z,33.03
2023-03-03T02:29:23.884Z,34.03
2023-03-03T02:32:09.177Z,33.30
2023-03-03T02:34:54.498Z,31.40
2023-03-03T02:37:40.099Z,32.03
2023-03-03T02:40:28.994Z,31.87
2023-03-03T02:43:17.513Z,33.13
2023-03-03T02:46:03.423Z,31.80
2023-03-03T02:48:49.354Z,29.53
2023-03-03T02:51:35.271Z,29.10
2023-03-03T02:54:22.837Z,30.20
2023-03-03T02:57:08.457Z,28.13
2023-03-03T02:59:53.672Z,29.03
2023-03-03T03:02:39.211Z,30.57
2023-03-03T03:05:25.178Z,28.03
2023-03-03T03:08:10.458Z,29.43
2023-03-03T03:10:56.189Z,30.17
2023-03-03T03:13:43.770Z,31.33
2023-03-03T03:16:29.353Z,28.37
2023-03-03T03:19:14.749Z,29.97
2023-03-03T03:22:01.778Z,29.77
2023-03-03T03:24:48.337Z,30.40
2023-03-03T03:27:34.423Z,29.97
2023-03-03T03:30:19.894Z,29.93
2023-03-03T03:33:06.524Z,29.73
2023-03-03T03:35:52.757Z,29.93
2023-03-03T03:38:38.617Z,29.60
2023-03-03T03:41:25.659Z,29.30
2023-03-03T03:44:11.251Z,31.03
2023-03-03T03:46:56.757Z,29.97
2023-03-03T03:49:43.229Z,30.10
2023-03-03T03:52:28.658Z,30.67
2023-03-03T03:55:14.200Z,30.07
2023-03-03T03:58:00.554Z,31.17
2023-03-03T04:00:46.484Z,29.53
2023-03-03T04:03:32.764Z,32.93
2023-03-03T04:06:18.709Z,30.37
2023-03-03T04:09:03.979Z,29.73
2023-03-03T04:11:49.818Z,29.63
2023-03-03T04:14:36.290Z,31.60
2023-03-03T04:17:23.402Z,30.70
2023-03-03T04:20:12.899Z,30.77
2023-03-03T04:22:58.111Z,30.17
2023-03-03T04:25:47.382Z,31.20
2023-03-03T04:28:33.659Z,30.20
2023-03-03T04:31:19.414Z,29.83
2023-03-03T04:34:05.586Z,29.90
2023-03-03T04:36:51.742Z,30.07
2023-03-03T04:39:37.158Z,31.10
2023-03-03T04:42:22.369Z,29.37
2023-03-03T04:45:08.428Z,27.97
2023-03-03T04:47:54.353Z,28.00
2023-03-03T04:50:42.516Z,26.37
2023-03-03T04:53:28.119Z,27.47
2023-03-03T04:56:13.672Z,26.30
2023-03-03T04:58:58.898Z,27.60
2023-03-03T05:01:44.390Z,28.07
2023-03-03T05:04:29.616Z,27.83
2023-03-03T05:07:14.779Z,26.93
2023-03-03T05:10:00.061Z,26.07
2023-03-03T05:12:45.199Z,25.07
2023-03-03T05:15:33.820Z,26.13
2023-03-03T05:18:19.875Z,26.37
2023-03-03T05:21:05.918Z,25.67
2023-03-03T05:23:51.610Z,25.57
2023-03-03T05:26:37.396Z,25.43
2023-03-03T05:29:23.105Z,25.57
2023-03-03T05:32:08.573Z,24.97
2023-03-03T05:34:53.935Z,24.73
2023-03-03T05:37:39.150Z,24.27
2023-03-03T05:40:27.934Z,25.27
2023-03-03T05:43:13.308Z,24.87
2023-03-03T05:45:58.789Z,24.23
2023-03-03T05:48:44.542Z,24.97
2023-03-03T05:51:30.482Z,23.30
2023-03-03T05:54:15.921Z,23.67
2023-03-03T05:57:01.193Z,23.00
2023-03-03T05:59:46.633Z,22.30
2023-03-03T06:02:32.200Z,22.27
2023-03-03T06:05:17.961Z,20.97
2023-03-03T06:08:03.958Z,19.77
2023-03-03T06:10:49.529Z,21.30
2023-03-03T06:13:35.132Z,21.90
2023-03-03T06:16:20.706Z,20.83
2023-03-03T06:19:06.333Z,21.20
2023-03-03T06:21:51.727Z,20.17
2023-03-03T06:24:37.058Z,20.80
2023-03-03T06:27:22.594Z,20.60
2023-03-03T06:30:08.532Z,18.67
2023-03-03T06:32:54.719Z,19.87
2023-03-03T06:35:39.980Z,20.43
2023-03-03T06:38:26.905Z,18.70
2023-03-03T06:41:12.126Z,18.67
2023-03-03T06:43:57.915Z,18.37
2023-03-03T06:46:43.102Z,16.00
2023-03-03T06:49:29.043Z,18.97
2023-03-03T06:52:26.103Z,18.83
2023-03-03T06:55:15.365Z,18.10
2023-03-03T06:58:01.079Z,18.33
2023-03-03T07:00:55.460Z,17.97
2023-03-03T07:03:40.932Z,19.30
2023-03-03T07:06:26.910Z,18.70
2023-03-03T07:09:37.726Z,19.93
2023-03-03T07:12:26.611Z,17.17
2023-03-03T07:15:24.477Z,18.43
2023-03-03T07:18:59.143Z,18.87
2023-03-03T07:21:44.294Z,17.73
2023-03-03T07:24:31.380Z,16.63
2023-03-03T07:27:23.746Z,16.37
2023-03-03T07:30:12.431Z,17.23
2023-03-03T07:32:59.271Z,16.83
2023-03-03T07:35:44.920Z,15.33
2023-03-03T07:38:37.211Z,17.77
2023-03-03T07:41:22.630Z,16.13
2023-03-03T07:44:21.452Z,16.00
2023-03-03T07:47:20.159Z,16.13
2023-03-03T07:50:24.045Z,16.30
2023-03-03T07:53:30.755Z,15.33
2023-03-03T07:56:31.050Z,15.97
2023-03-03T07:59:25.709Z,14.50
2023-03-03T08:02:42.156Z,14.87
2023-03-03T08:05:30.601Z,14.70
2023-03-03T08:08:34.800Z,15.17
2023-03-03T08:11:20.272Z,14.67
2023-03-03T08:14:11.651Z,15.50
2023-03-03T08:17:00.419Z,14.57
2023-03-03T08:19:46.666Z,14.43
2023-03-03T08:22:34.790Z,13.70
2023-03-03T08:25:19.978Z,14.50
2023-03-03T08:28:05.273Z,15.70
2023-03-03T08:30:50.705Z,14.30
2023-03-03T08:33:36.495Z,13.43
2023-03-03T08:36:22.117Z,12.63
2023-03-03T08:39:07.518Z,13.17
2023-03-03T08:41:52.680Z,14.13
2023-03-03T08:44:38.242Z,12.90
2023-03-03T08:47:23.790Z,12.83
2023-03-03T08:50:09.622Z,13.63
2023-03-03T08:52:55.771Z,13.97
2023-03-03T08:55:42.107Z,12.43
2023-03-03T08:58:35.220Z,12.50
2023-03-03T09:01:21.562Z,13.37
2023-03-03T09:04:06.780Z,12.33
2023-03-03T09:06:52.501Z,12.03
2023-03-03T09:09:37.912Z,11.70
2023-03-03T09:12:44.666Z,11.63
2023-03-03T09:15:32.275Z,11.40
2023-03-03T09:18:19.575Z,12.07
2023-03-03T09:21:37.302Z,10.30
2023-03-03T09:24:28.935Z,10.37
2023-03-03T09:27:22.761Z,10.37
2023-03-03T09:30:36.905Z,11.50
2023-03-03T09:33:42.855Z,10.87
2023-03-03T09:36:35.138Z,11.33
2023-03-03T09:39:25.637Z,11.10
2023-03-03T09:42:26.402Z,10.20
2023-03-03T09:45:36.287Z,10.60
2023-03-03T09:48:48.177Z,9.87
2023-03-03T09:51:41.359Z,10.20
2023-03-03T09:54:45.622Z,11.30
2023-03-03T09:58:15.706Z,10.10
2023-03-03T10:01:51.383Z,9.40
2023-03-03T10:04:55.404Z,9.00
2023-03-03T10:07:49.609Z,9.00
2023-03-03T10:10:34.766Z,9.50
2023-03-03T10:14:02.046Z,9.30
2023-03-03T10:16:59.162Z,9.33
2023-03-03T10:20:06.209Z,9.23
2023-03-03T10:23:01.549Z,9.57
2023-03-03T10:26:10.471Z,9.73
2023-03-03T10:29:08.661Z,9.30
2023-03-03T10:32:18.612Z,9.53
2023-03-03T10:35:07.115Z,8.63
2023-03-03T10:38:20.039Z,8.33
2023-03-03T10:41:36.303Z,8.80
2023-03-03T10:44:49.402Z,8.60
2023-03-03T10:48:01.666Z,8.63
2023-03-03T10:51:05.238Z,8.37
2023-03-03T10:54:28.066Z,7.80
2023-03-03T10:57:37.614Z,8.10
2023-03-03T11:00:48.622Z,8.03
2023-03-03T11:03:43.124Z,7.77
2023-03-03T11:06:42.235Z,7.70
2023-03-03T11:09:33.607Z,7.43
2023-03-03T11:12:31.111Z,8.00
2023-03-03T11:15:32.186Z,7.93
2023-03-03T11:18:45.642Z,7.67
2023-03-03T11:21:49.312Z,7.03
2023-03-03T11:24:59.038Z,7.27
2023-03-03T11:28:05.983Z,6.40
2023-03-03T11:31:03.871Z,7.00
2023-03-03T11:34:03.695Z,6.63
2023-03-03T11:36:55.501Z,6.90
2023-03-03T11:39:43.164Z,6.57
2023-03-03T11:42:39.374Z,6.50
2023-03-03T11:45:34.313Z,6.60
2023-03-03T11:48:30.458Z,6.80
2023-03-03T11:51:23.670Z,6.93
2023-03-03T11:54:25.575Z,6.30
2023-03-03T11:57:29.863Z,6.70
2023-03-03T12:00:58.314Z,6.10
2023-03-03T12:03:57.350Z,6.60
2023-03-03T12:07:12.952Z,6.63
2023-03-03T12:10:21.803Z,6.70
2023-03-03T12:13:50.746Z,6.40
2023-03-03T12:16:56.663Z,6.20
2023-03-03T12:19:50.979Z,6.30
2023-03-03T12:23:20.659Z,6.73
2023-03-03T12:26:25.710Z,6.37
2023-03-03T12:29:25.656Z,6.73
2023-03-03T12:32:23.187Z,6.33
2023-03-03T12:35:25.167Z,6.70
2023-03-03T12:38:32.089Z,6.60
2023-03-03T12:41:30.364Z,6.53
2023-03-03T12:44:30.745Z,6.27
2023-03-03T12:47:24.688Z,6.50
2023-03-03T12:50:10.044Z,6.73
2023-03-03T12:53:17.791Z,6.07
2023-03-03T12:56:08.632Z,6.57
2023-03-03T12:59:18.265Z,6.40
2023-03-03T13:02:31.966Z,6.13
2023-03-03T13:05:31.508Z,6.03
2023-03-03T13:08:41.192Z,6.23
2023-03-03T13:11:55.799Z,6.40
2023-03-03T13:15:19.318Z,5.67
2023-03-03T13:18:16.659Z,6.33
2023-03-03T13:21:20.506Z,6.67
2023-03-03T13:24:15.480Z,6.50
2023-03-03T13:27:09.970Z,6.20
2023-03-03T13:30:16.647Z,7.67
2023-03-03T13:33:26.252Z,10.20
2023-03-03T13:36:14.861Z,6.23
2023-03-03T13:39:18.014Z,6.07
2023-03-03T13:42:10.454Z,6.50
2023-03-03T13:44:56.597Z,6.10
2023-03-03T13:48:14.191Z,6.50
2023-03-03T13:51:06.467Z,6.20
2023-03-03T13:54:09.570Z,6.47
2023-03-03T13:57:13.142Z,5.77
2023-03-03T14:00:26.108Z,6.40
2023-03-03T14:03:35.521Z,6.40
2023-03-03T14:06:26.792Z,6.70
2023-03-03T14:09:55.596Z,6.23
2023-03-03T14:12:44.644Z,6.03
2023-03-03T14:15:58.346Z,6.03
2023-03-03T14:18:56.966Z,6.73
2023-03-03T14:22:14.186Z,6.27
2023-03-03T14:25:08.221Z,6.17
2023-03-03T14:28:04.575Z,6.10
2023-03-03T14:30:55.160Z,5.80
2023-03-03T14:33:45.674Z,5.80
2023-03-03T14:36:35.940Z,5.73
2023-03-03T14:39:38.949Z,5.80
2023-03-03T14:42:35.732Z,5.67
2023-03-03T14:45:41.166Z,6.33
2023-03-03T14:48:27.525Z,6.53
2023-03-03T14:51:25.852Z,6.50
2023-03-03T14:54:18.910Z,6.20
2023-03-03T14:57:12.219Z,6.07
2023-03-03T15:00:13.932Z,6.07
2023-03-03T15:03:04.407Z,6.00
2023-03-03T15:05:56.912Z,6.17
2023-03-03T15:08:42.801Z,5.87
2023-03-03T15:11:33.385Z,6.20
2023-03-03T15:14:21.059Z,6.30
2023-03-03T15:17:23.990Z,5.90
2023-03-03T15:20:35.802Z,5.90
2023-03-03T15:23:43.524Z,6.00
2023-03-03T15:26:47.994Z,6.40
2023-03-03T15:29:38.225Z,6.10
2023-03-03T15:32:39.571Z,5.83
2023-03-03T15:35:39.806Z,5.77
2023-03-03T15:38:48.439Z,5.60
2023-03-03T15:42:04.748Z,5.60
2023-03-03T15:45:22.962Z,6.30
2023-03-03T15:48:23.634Z,5.63
2023-03-03T15:51:24.099Z,5.83
2023-03-03T15:54:49.210Z,5.87
2023-03-03T15:58:07.313Z,5.53
2023-03-03T16:01:11.612Z,5.83
2023-03-03T16:03:56.912Z,5.97
2023-03-03T16:07:04.055Z,6.07
2023-03-03T16:10:14.463Z,6.10
2023-03-03T16:13:28.087Z,6.23
2023-03-03T16:16:38.941Z,6.07
2023-03-03T16:19:42.522Z,5.67
2023-03-03T16:22:36.775Z,5.77
2023-03-03T16:25:31.290Z,5.73
2023-03-03T16:28:25.617Z,6.07
2023-03-03T16:31:23.043Z,5.73
2023-03-03T16:34:30.583Z,6.40
2023-03-03T16:37:25.824Z,5.80
2023-03-03T16:40:20.251Z,6.13
2023-03-03T16:43:27.374Z,5.50
2023-03-03T16:46:38.597Z,5.37
2023-03-03T16:49:39.256Z,6.03
2023-03-03T16:52:32.385Z,5.87
2023-03-03T16:55:21.778Z,5.53
2023-03-03T16:59:01.570Z,6.17
2023-03-03T17:01:46.801Z,5.80
2023-03-03T17:04:43.642Z,6.27
2023-03-03T17:07:49.109Z,5.63
2023-03-03T17:10:58.284Z,6.27
2023-03-03T17:14:07.015Z,5.63
2023-03-03T17:16:55.245Z,5.67
2023-03-03T17:19:58.200Z,5.77
2023-03-03T17:23:10.950Z,5.87
2023-03-03T17:25:59.030Z,6.07
2023-03-03T17:29:08.696Z,5.97
2023-03-03T17:32:22.192Z,6.13
2023-03-03T17:35:16.795Z,6.27
2023-03-03T17:38:20.629Z,5.90
2023-03-03T17:41:31.123Z,5.73
2023-03-03T17:44:22.459Z,6.07
2023-03-03T17:47:13.228Z,6.23
2023-03-03T17:50:19.862Z,5.70
2023-03-03T17:53:11.168Z,6.13
2023-03-03T17:56:05.582Z,6.03
2023-03-03T17:59:02.287Z,6.07
2023-03-03T18:02:20.386Z,5.70
2023-03-03T18:05:28.858Z,5.80
2023-03-03T18:08:29.648Z,6.60
2023-03-03T18:11:40.682Z,6.77
2023-03-03T18:14:26.218Z,6.37
2023-03-03T18:17:36.346Z,6.10
2023-03-03T18:21:05.113Z,6.57
2023-03-03T18:23:50.610Z,7.17
2023-03-03T18:26:41.471Z,6.70
2023-03-03T18:29:27.587Z,10.00
2023-03-03T18:32:23.613Z,8.50
2023-03-03T18:35:35.598Z,8.27
2023-03-03T18:38:32.625Z,8.07
2023-03-03T18:41:27.193Z,8.30
2023-03-03T18:44:29.292Z,8.00
2023-03-03T18:47:14.721Z,7.77
2023-03-03T18:50:31.385Z,8.20
2023-03-03T18:53:24.916Z,8.27
2023-03-03T18:56:11.306Z,8.30
2023-03-03T18:58:56.815Z,9.50
2023-03-03T19:01:43.966Z,8.67
2023-03-03T19:04:36.336Z,8.40
2023-03-03T19:07:21.822Z,8.30
2023-03-03T19:10:22.334Z,9.40
2023-03-03T19:13:32.569Z,8.67
2023-03-03T19:16:23.881Z,8.90
2023-03-03T19:19:21.706Z,8.83
2023-03-03T19:22:26.747Z,9.03
2023-03-03T19:25:12.145Z,8.97
2023-03-03T19:28:29.186Z,9.37
2023-03-03T19:31:32.680Z,9.17
2023-03-03T19:34:47.904Z,9.13
2023-03-03T19:38:00.925Z,9.80
2023-03-03T19:40:55.689Z,10.37
2023-03-03T19:43:54.516Z,9.03
2023-03-03T19:47:01.529Z,9.93
2023-03-03T19:49:49.862Z,10.20
2023-03-03T19:52:41.409Z,28.67
2023-03-03T19:55:39.099Z,16.67
2023-03-03T19:59:00.103Z,11.07
2023-03-03T20:01:50.502Z,10.33
2023-03-03T20:04:44.871Z,10.10
2023-03-03T20:07:59.639Z,10.13
2023-03-03T20:11:06.336Z,10.17
2023-03-03T20:14:05.793Z,10.10
2023-03-03T20:16:55.317Z,10.03
2023-03-03T20:19:58.335Z,10.03
2023-03-03T20:23:02.394Z,9.77
2023-03-03T20:25:58.085Z,9.20
2023-03-03T20:28:50.651Z,10.60
2023-03-03T20:31:54.758Z,9.90
2023-03-03T20:34:40.670Z,9.57
2023-03-03T20:37:42.418Z,10.57
2023-03-03T20:40:42.189Z,10.27
2023-03-03T20:43:48.583Z,9.57
2023-03-03T20:47:19.050Z,10.27
2023-03-03T20:50:21.695Z,10.10
2023-03-03T20:53:19.260Z,9.77
2023-03-03T20:56:16.770Z,9.90
2023-03-03T20:59:02.309Z,9.47
2023-03-03T21:02:26.101Z,9.57
2023-03-03T21:05:16.347Z,10.23
2023-03-03T21:08:05.834Z,9.60
2023-03-03T21:10:56.985Z,9.23
2023-03-03T21:13:44.207Z,10.10
2023-03-03T21:16:32.509Z,10.43
2023-03-03T21:19:26.046Z,10.00
2023-03-03T21:22:11.163Z,9.77
2023-03-03T21:24:57.901Z,9.97
2023-03-03T21:27:43.416Z,11.87
2023-03-03T21:30:28.848Z,10.83
2023-03-03T21:33:44.310Z,11.30
2023-03-03T21:36:32.858Z,10.20
2023-03-03T21:39:32.720Z,10.40
2023-03-03T21:42:39.284Z,10.00
2023-03-03T21:45:25.253Z,9.93
2023-03-03T21:48:10.868Z,9.40
2023-03-03T21:50:56.107Z,10.47
2023-03-03T21:53:43.068Z,10.63
2023-03-03T21:56:28.382Z,10.47
2023-03-03T21:59:14.305Z,10.30
2023-03-03T22:01:59.988Z,10.63
2023-03-03T22:04:45.426Z,10.43
2023-03-03T22:07:31.016Z,11.07
2023-03-03T22:10:16.482Z,11.30
2023-03-03T22:13:02.043Z,11.27
2023-03-03T22:15:48.350Z,10.47
2023-03-03T22:18:33.818Z,10.90
2023-03-03T22:21:19.270Z,11.37
2023-03-03T22:24:05.477Z,11.63
2023-03-03T22:26:50.855Z,11.43
2023-03-03T22:29:36.039Z,11.33
2023-03-03T22:32:21.508Z,10.53
2023-03-03T22:35:07.992Z,10.43
2023-03-03T22:37:53.256Z,11.53
2023-03-03T22:40:38.770Z,11.33
2023-03-03T22:43:24.309Z,11.20
2023-03-03T22:46:09.799Z,11.53
2023-03-03T22:48:55.504Z,11.10
2023-03-03T22:51:40.593Z,11.37
2023-03-03T22:54:26.266Z,11.10
2023-03-03T22:57:11.398Z,10.90
2023-03-03T22:59:56.955Z,10.47
2023-03-03T23:02:42.331Z,11.30
2023-03-03T23:05:27.665Z,11.30
2023-03-03T23:08:15.340Z,10.43
2023-03-03T23:11:00.901Z,10.33
2023-03-03T23:13:46.312Z,11.27
2023-03-03T23:16:31.705Z,10.53
2023-03-03T23:19:17.238Z,11.33
2023-03-03T23:22:02.770Z,11.30
2023-03-03T23:24:47.958Z,11.37
2023-03-03T23:27:33.824Z,11.33
2023-03-03T23:30:20.798Z,11.90
2023-03-03T23:33:06.345Z,11.20
2023-03-03T23:35:52.161Z,11.00
2023-03-03T23:38:37.329Z,10.77
2023-03-03T23:41:22.832Z,10.90
2023-03-03T23:44:08.355Z,10.90
2023-03-03T23:46:53.737Z,11.13
2023-03-03T23:49:39.167Z,11.07
2023-03-03T23:52:24.500Z,11.70
2023-03-03T23:55:09.944Z,12.03
2023-03-03T23:57:55.500Z,10.43
